createdAt,value
2023-06-06T00:00:45.045Z,516.90
2023-06-06T00:01:45.040Z,508.70
2023-06-06T00:02:45.099Z,513.50
2023-06-06T00:03:45.181Z,541.00
2023-06-06T00:04:45.035Z,549.30
2023-06-06T00:05:44.994Z,506.90
2023-06-06T00:06:44.993Z,536.60
2023-06-06T00:07:44.956Z,598.40
2023-06-06T00:08:44.993Z,560.70
2023-06-06T00:09:44.934Z,524.10
2023-06-06T00:10:45.001Z,540.50
2023-06-06T00:11:44.922Z,537.70
2023-06-06T00:12:45.388Z,533.70
2023-06-06T00:13:44.933Z,530.50
2023-06-06T00:14:44.938Z,532.90
2023-06-06T00:15:44.862Z,542.60
2023-06-06T00:16:44.901Z,547.60
2023-06-06T00:17:44.905Z,562.00
2023-06-06T00:18:44.857Z,549.80
2023-06-06T00:19:44.833Z,540.00
2023-06-06T00:20:44.853Z,560.70
2023-06-06T00:21:44.801Z,551.80
2023-06-06T00:22:44.848Z,608.00
2023-06-06T00:23:44.803Z,609.00
2023-06-06T00:24:44.779Z,613.70
2023-06-06T00:25:44.772Z,610.90
2023-06-06T00:26:44.786Z,598.50
2023-06-06T00:27:44.783Z,598.40
2023-06-06T00:28:44.732Z,595.90
2023-06-06T00:29:44.711Z,589.60
2023-06-06T00:30:44.717Z,554.40
2023-06-06T00:31:44.816Z,594.30
2023-06-06T00:32:44.728Z,573.40
2023-06-06T00:33:44.665Z,584.30
2023-06-06T00:34:44.663Z,566.90
2023-06-06T00:35:44.649Z,595.60
2023-06-06T00:36:44.673Z,538.50
2023-06-06T00:37:44.624Z,603.80
2023-06-06T00:38:44.610Z,668.30
2023-06-06T00:39:44.585Z,591.30
2023-06-06T00:40:44.638Z,474.80
2023-06-06T00:41:44.614Z,492.30
2023-06-06T00:42:44.574Z,518.20
2023-06-06T00:43:44.561Z,629.10
2023-06-06T00:44:44.564Z,538.40
2023-06-06T00:45:44.596Z,522.80
2023-06-06T00:46:44.525Z,506.70
2023-06-06T00:47:44.546Z,537.40
2023-06-06T00:48:44.505Z,536.20
2023-06-06T00:49:44.525Z,571.00
2023-06-06T00:50:44.524Z,527.70
2023-06-06T00:51:44.465Z,537.20
2023-06-06T00:52:44.453Z,566.40
2023-06-06T00:53:44.445Z,562.00
2023-06-06T00:54:44.424Z,559.20
2023-06-06T00:55:44.477Z,566.30
2023-06-06T00:56:44.407Z,551.20
2023-06-06T00:57:44.414Z,574.70
2023-06-06T00:58:44.349Z,549.60
2023-06-06T00:59:44.360Z,553.20
2023-06-06T01:00:44.383Z,558.40
2023-06-06T01:01:44.390Z,541.60
2023-06-06T01:02:44.357Z,544.10
2023-06-06T01:03:44.349Z,575.60
2023-06-06T01:04:44.330Z,535.40
2023-06-06T01:05:44.364Z,576.10
2023-06-06T01:06:44.257Z,588.80
2023-06-06T01:07:44.263Z,543.70
2023-06-06T01:08:44.245Z,562.80
2023-06-06T01:09:44.287Z,577.50
2023-06-06T01:10:44.227Z,539.50
2023-06-06T01:11:44.224Z,567.30
2023-06-06T01:12:44.205Z,564.00
2023-06-06T01:13:44.202Z,554.00
2023-06-06T01:14:44.196Z,572.40
2023-06-06T01:15:44.204Z,576.90
2023-06-06T01:16:44.152Z,582.70
2023-06-06T01:17:44.188Z,552.30
2023-06-06T01:18:44.183Z,623.40
2023-06-06T01:19:44.167Z,577.70
2023-06-06T01:20:44.101Z,593.10
2023-06-06T01:21:44.092Z,651.00
2023-06-06T01:22:44.092Z,649.20
2023-06-06T01:23:44.155Z,642.40
2023-06-06T01:24:44.050Z,641.90
2023-06-06T01:25:44.053Z,629.50
2023-06-06T01:26:44.049Z,616.70
2023-06-06T01:27:44.061Z,622.20
2023-06-06T01:28:44.048Z,588.00
2023-06-06T01:29:44.025Z,596.00
2023-06-06T01:30:44.008Z,599.40
2023-06-06T01:31:44.119Z,676.20
2023-06-06T01:32:44.042Z,678.90
2023-06-06T01:33:43.952Z,692.00
2023-06-06T01:34:43.944Z,686.20
2023-06-06T01:35:43.943Z,703.60
2023-06-06T01:36:43.921Z,717.70
2023-06-06T01:37:43.945Z,743.40
2023-06-06T01:38:43.924Z,748.20
2023-06-06T01:39:43.890Z,761.40
2023-06-06T01:40:43.875Z,736.30
2023-06-06T01:41:43.871Z,740.10
2023-06-06T01:42:43.901Z,729.90
2023-06-06T01:43:43.855Z,740.20
2023-06-06T01:44:43.854Z,754.40
2023-06-06T01:45:43.817Z,746.70
2023-06-06T01:46:43.893Z,766.90
2023-06-06T01:47:43.873Z,734.50
2023-06-06T01:48:43.791Z,768.40
2023-06-06T01:49:43.788Z,749.80
2023-06-06T01:50:43.753Z,722.40
2023-06-06T01:51:43.822Z,715.90
2023-06-06T01:52:43.757Z,695.80
2023-06-06T01:53:43.733Z,712.80
2023-06-06T01:54:43.720Z,740.50
2023-06-06T01:55:43.704Z,705.90
2023-06-06T01:56:43.759Z,739.60
2023-06-06T01:57:43.703Z,778.80
2023-06-06T01:58:43.682Z,772.00
2023-06-06T01:59:43.669Z,778.00
2023-06-06T02:00:43.739Z,788.50
2023-06-06T02:01:43.682Z,774.00
2023-06-06T02:02:43.775Z,750.30
2023-06-06T02:03:43.720Z,749.50
2023-06-06T02:04:43.602Z,745.60
2023-06-06T02:05:43.647Z,702.20
2023-06-06T02:06:43.598Z,725.80
2023-06-06T02:07:43.571Z,706.70
2023-06-06T02:08:43.563Z,721.50
2023-06-06T02:09:43.551Z,732.60
2023-06-06T02:10:43.575Z,728.80
2023-06-06T02:11:43.543Z,754.40
2023-06-06T02:12:43.513Z,757.60
2023-06-06T02:13:43.499Z,756.70
2023-06-06T02:14:43.500Z,746.30
2023-06-06T02:15:43.511Z,727.90
2023-06-06T02:16:43.481Z,734.60
2023-06-06T02:17:43.478Z,647.70
2023-06-06T02:18:43.451Z,635.30
2023-06-06T02:19:43.476Z,658.20
2023-06-06T02:20:43.458Z,690.50
2023-06-06T02:21:43.412Z,696.90
2023-06-06T02:22:43.392Z,691.60
2023-06-06T02:23:43.450Z,700.30
2023-06-06T02:24:43.406Z,697.90
2023-06-06T02:25:43.397Z,694.70
2023-06-06T02:26:43.386Z,689.10
2023-06-06T02:27:43.330Z,716.10
2023-06-06T02:28:43.321Z,700.20
2023-06-06T02:29:43.350Z,670.10
2023-06-06T02:30:43.355Z,632.20
2023-06-06T02:31:43.290Z,624.70
2023-06-06T02:32:43.313Z,687.70
2023-06-06T02:33:43.309Z,641.60
2023-06-06T02:34:43.315Z,644.10
2023-06-06T02:35:43.254Z,663.90
2023-06-06T02:36:43.229Z,688.00
2023-06-06T02:37:43.269Z,704.30
2023-06-06T02:38:43.245Z,716.30
2023-06-06T02:39:43.192Z,727.50
2023-06-06T02:40:43.172Z,735.90
2023-06-06T02:41:43.173Z,733.20
2023-06-06T02:42:43.159Z,731.10
2023-06-06T02:43:43.192Z,732.60
2023-06-06T02:44:43.144Z,737.70
2023-06-06T02:45:43.133Z,722.50
2023-06-06T02:46:43.170Z,726.90
2023-06-06T02:47:43.150Z,718.60
2023-06-06T02:48:43.116Z,721.80
2023-06-06T02:49:43.089Z,682.50
2023-06-06T02:50:43.081Z,682.40
2023-06-06T02:51:43.058Z,687.90
2023-06-06T02:52:43.097Z,696.70
2023-06-06T02:53:43.051Z,679.50
2023-06-06T02:54:43.031Z,679.50
2023-06-06T02:55:43.017Z,686.50
2023-06-06T02:56:42.992Z,663.80
2023-06-06T02:57:43.033Z,672.40
2023-06-06T02:58:42.968Z,685.20
2023-06-06T02:59:42.983Z,679.70
2023-06-06T03:00:42.961Z,668.20
2023-06-06T03:01:43.025Z,661.00
2023-06-06T03:02:43.027Z,728.00
2023-06-06T03:03:42.965Z,647.30
2023-06-06T03:04:42.907Z,609.10
2023-06-06T03:05:42.905Z,643.10
2023-06-06T03:06:42.932Z,659.50
2023-06-06T03:07:42.884Z,663.40
2023-06-06T03:08:42.860Z,602.30
2023-06-06T03:09:42.856Z,608.50
2023-06-06T03:10:42.866Z,608.00
2023-06-06T03:11:42.878Z,586.70
2023-06-06T03:12:42.829Z,597.10
2023-06-06T03:13:42.818Z,597.20
2023-06-06T03:14:55.681Z,573.80
2023-06-06T03:15:43.794Z,585.20
2023-06-06T03:16:42.944Z,589.10
2023-06-06T03:17:42.802Z,593.60
2023-06-06T03:18:42.747Z,582.00
2023-06-06T03:19:42.748Z,655.30
2023-06-06T03:20:42.782Z,663.20
2023-06-06T03:21:42.762Z,612.50
2023-06-06T03:22:42.705Z,653.40
2023-06-06T03:23:42.887Z,667.00
2023-06-06T03:24:42.691Z,643.80
2023-06-06T03:25:42.717Z,634.60
2023-06-06T03:26:42.672Z,694.60
2023-06-06T03:27:42.661Z,681.40
2023-06-06T03:28:42.643Z,613.60
2023-06-06T03:29:42.663Z,617.50
2023-06-06T03:30:42.679Z,656.40
2023-06-06T03:31:42.648Z,634.40
2023-06-06T03:32:42.595Z,660.90
2023-06-06T03:33:42.580Z,665.60
2023-06-06T03:34:42.563Z,638.00
2023-06-06T03:35:42.629Z,616.10
2023-06-06T03:36:42.562Z,629.80
2023-06-06T03:37:42.549Z,598.90
2023-06-06T03:38:42.527Z,610.20
2023-06-06T03:39:42.565Z,630.80
2023-06-06T03:40:42.554Z,641.60
2023-06-06T03:41:42.491Z,635.70
2023-06-06T03:42:42.483Z,632.30
2023-06-06T03:43:42.463Z,647.10
2023-06-06T03:44:42.480Z,662.70
2023-06-06T03:45:42.524Z,624.00
2023-06-06T03:46:42.423Z,646.80
2023-06-06T03:47:42.490Z,682.60
2023-06-06T03:48:42.402Z,674.80
2023-06-06T03:49:42.432Z,676.30
2023-06-06T03:50:42.384Z,634.80
2023-06-06T03:51:42.423Z,709.00
2023-06-06T03:52:42.374Z,736.50
2023-06-06T03:53:42.392Z,653.30
2023-06-06T03:54:42.412Z,704.10
2023-06-06T03:55:42.332Z,670.50
2023-06-06T03:56:42.318Z,670.70
2023-06-06T03:57:42.306Z,653.40
2023-06-06T03:58:42.317Z,637.80
2023-06-06T03:59:42.278Z,643.70
2023-06-06T04:00:42.263Z,658.60
2023-06-06T04:01:42.665Z,671.70
2023-06-06T04:02:42.325Z,674.90
2023-06-06T04:03:42.368Z,635.70
2023-06-06T04:04:42.301Z,652.70
2023-06-06T04:05:42.217Z,696.50
2023-06-06T04:06:42.186Z,727.70
2023-06-06T04:07:42.227Z,731.40
2023-06-06T04:08:42.213Z,759.20
2023-06-06T04:09:42.197Z,792.30
2023-06-06T04:10:42.155Z,816.00
2023-06-06T04:11:42.160Z,803.80
2023-06-06T04:12:42.163Z,844.10
2023-06-06T04:13:42.116Z,868.30
2023-06-06T04:14:42.109Z,824.90
2023-06-06T04:15:42.144Z,779.70
2023-06-06T04:16:42.095Z,796.20
2023-06-06T04:17:42.113Z,817.10
2023-06-06T04:18:42.058Z,687.80
2023-06-06T04:19:42.056Z,674.60
2023-06-06T04:20:42.023Z,682.60
2023-06-06T04:21:42.072Z,642.80
2023-06-06T04:22:42.051Z,679.70
2023-06-06T04:23:42.080Z,664.00
2023-06-06T04:24:41.981Z,603.90
2023-06-06T04:25:41.998Z,564.10
2023-06-06T04:26:42.151Z,576.30
2023-06-06T04:27:42.125Z,626.80
2023-06-06T04:28:41.953Z,651.10
2023-06-06T04:29:41.943Z,728.50
2023-06-06T04:30:41.931Z,716.10
2023-06-06T04:31:42.110Z,674.80
2023-06-06T04:32:41.902Z,681.00
2023-06-06T04:33:41.874Z,673.50
2023-06-06T04:34:41.876Z,629.40
2023-06-06T04:35:41.915Z,592.00
2023-06-06T04:36:41.890Z,587.60
2023-06-06T04:37:41.866Z,577.30
2023-06-06T04:38:41.846Z,627.50
2023-06-06T04:39:41.808Z,637.40
2023-06-06T04:41:00.540Z,631.90
2023-06-06T04:42:41.782Z,770.00
2023-06-06T04:43:41.776Z,742.10
2023-06-06T04:44:41.775Z,763.20
2023-06-06T04:45:41.789Z,756.00
2023-06-06T04:46:41.766Z,774.80
2023-06-06T04:47:42.016Z,776.90
2023-06-06T04:48:41.717Z,756.50
2023-06-06T04:49:41.713Z,705.70
2023-06-06T04:50:41.726Z,696.20
2023-06-06T04:51:41.702Z,672.50
2023-06-06T04:52:41.688Z,637.20
2023-06-06T04:53:41.654Z,478.00
2023-06-06T04:54:41.752Z,554.30
2023-06-06T04:55:41.696Z,423.90
2023-06-06T04:56:41.636Z,463.50
2023-06-06T04:57:41.615Z,458.40
2023-06-06T04:58:41.615Z,490.70
2023-06-06T04:59:41.660Z,427.50
2023-06-06T05:00:41.615Z,444.70
2023-06-06T05:01:41.593Z,454.20
2023-06-06T05:02:41.600Z,454.00
2023-06-06T05:03:41.631Z,453.80
2023-06-06T05:04:41.589Z,478.30
2023-06-06T05:05:41.538Z,565.40
2023-06-06T05:06:41.516Z,507.50
2023-06-06T05:07:41.521Z,515.70
2023-06-06T05:08:41.530Z,480.30
2023-06-06T05:09:41.548Z,498.60
2023-06-06T05:10:41.479Z,482.70
2023-06-06T05:11:41.458Z,547.80
2023-06-06T05:12:41.460Z,529.70
2023-06-06T05:13:41.496Z,536.30
2023-06-06T05:14:41.451Z,509.30
2023-06-06T05:15:41.412Z,501.10
2023-06-06T05:16:41.408Z,479.20
2023-06-06T05:17:41.413Z,529.10
2023-06-06T05:18:41.406Z,505.70
2023-06-06T05:19:41.390Z,543.60
2023-06-06T05:20:41.360Z,472.60
2023-06-06T05:21:41.356Z,572.30
2023-06-06T05:22:41.390Z,490.30
2023-06-06T05:23:41.418Z,442.00
2023-06-06T05:24:41.329Z,472.10
2023-06-06T05:25:41.313Z,429.90
2023-06-06T05:26:41.301Z,395.10
2023-06-06T05:27:41.342Z,451.20
2023-06-06T05:28:41.275Z,368.90
2023-06-06T05:29:41.271Z,319.50
2023-06-06T05:30:41.253Z,329.90
2023-06-06T05:31:41.340Z,310.30
2023-06-06T05:32:41.321Z,343.70
2023-06-06T05:33:41.232Z,308.90
2023-06-06T05:34:41.211Z,354.00
2023-06-06T05:35:41.242Z,332.20
2023-06-06T05:36:41.201Z,299.50
2023-06-06T05:37:41.178Z,277.90
2023-06-06T05:38:41.190Z,350.30
2023-06-06T05:39:41.129Z,358.40
2023-06-06T05:40:41.154Z,458.90
2023-06-06T05:41:41.135Z,489.40
2023-06-06T05:42:41.134Z,464.60
2023-06-06T05:43:41.080Z,461.90
2023-06-06T05:44:41.098Z,503.50
2023-06-06T05:45:42.847Z,465.00
2023-06-06T05:46:41.163Z,511.90
2023-06-06T05:47:41.073Z,502.80
2023-06-06T05:48:41.049Z,467.40
2023-06-06T05:49:41.055Z,481.90
2023-06-06T05:50:41.087Z,489.50
2023-06-06T05:51:40.991Z,467.20
2023-06-06T05:52:41.005Z,423.10
2023-06-06T05:53:40.979Z,460.30
2023-06-06T05:54:49.653Z,498.80
2023-06-06T05:55:42.007Z,466.90
2023-06-06T05:56:40.934Z,460.90
2023-06-06T05:57:40.982Z,367.80
2023-06-06T05:58:41.773Z,417.60
2023-06-06T05:59:40.949Z,364.80
2023-06-06T06:00:40.965Z,385.00
2023-06-06T06:01:41.453Z,369.50
2023-06-06T06:02:40.993Z,404.60
2023-06-06T06:03:41.256Z,416.30
2023-06-06T06:04:40.931Z,382.80
2023-06-06T06:05:40.889Z,371.30
2023-06-06T06:06:40.864Z,313.60
2023-06-06T06:07:40.829Z,309.70
2023-06-06T06:08:40.824Z,302.10
2023-06-06T06:09:40.851Z,310.30
2023-06-06T06:10:40.873Z,376.10
2023-06-06T06:11:40.790Z,390.90
2023-06-06T06:12:40.764Z,408.60
2023-06-06T06:13:40.746Z,441.90
2023-06-06T06:14:40.790Z,502.40
2023-06-06T06:15:40.746Z,409.90
2023-06-06T06:16:40.806Z,434.40
2023-06-06T06:17:40.752Z,429.70
2023-06-06T06:18:40.696Z,479.80
2023-06-06T06:19:40.714Z,414.30
2023-06-06T06:20:40.693Z,411.30
2023-06-06T06:21:40.677Z,565.00
2023-06-06T06:22:40.653Z,528.70
2023-06-06T06:23:40.735Z,435.30
2023-06-06T06:24:40.689Z,349.90
2023-06-06T06:25:40.673Z,362.70
2023-06-06T06:26:40.617Z,395.60
2023-06-06T06:27:40.597Z,368.30
2023-06-06T06:28:40.632Z,402.00
2023-06-06T06:29:40.586Z,451.90
2023-06-06T06:30:40.560Z,354.10
2023-06-06T06:31:40.599Z,379.10
2023-06-06T06:32:41.561Z,337.70
2023-06-06T06:33:40.576Z,351.40
2023-06-06T06:34:40.558Z,331.60
2023-06-06T06:35:40.488Z,363.50
2023-06-06T06:36:40.508Z,325.90
2023-06-06T06:37:40.876Z,289.20
2023-06-06T06:38:40.501Z,366.50
2023-06-06T06:39:40.475Z,408.60
2023-06-06T06:40:40.433Z,474.00
2023-06-06T06:41:40.425Z,563.60
2023-06-06T06:42:40.443Z,592.40
2023-06-06T06:43:40.400Z,513.30
2023-06-06T06:44:42.228Z,535.30
2023-06-06T06:45:40.425Z,628.60
2023-06-06T06:46:40.381Z,691.00
2023-06-06T06:47:40.451Z,644.40
2023-06-06T06:48:40.386Z,608.60
2023-06-06T06:49:40.335Z,645.80
2023-06-06T06:50:40.339Z,733.10
2023-06-06T06:51:40.352Z,716.70
2023-06-06T06:52:40.357Z,723.50
2023-06-06T06:53:40.300Z,657.40
2023-06-06T06:54:40.287Z,574.80
2023-06-06T06:55:40.277Z,538.00
2023-06-06T06:56:40.347Z,513.70
2023-06-06T06:57:40.259Z,539.00
2023-06-06T06:58:40.248Z,564.60
2023-06-06T06:59:40.225Z,584.40
2023-06-06T07:00:40.230Z,498.00
2023-06-06T07:01:40.332Z,508.40
2023-06-06T07:02:40.250Z,571.50
2023-06-06T07:03:40.211Z,588.50
2023-06-06T07:04:40.180Z,608.20
2023-06-06T07:05:40.261Z,624.00
2023-06-06T07:06:40.192Z,618.80
2023-06-06T07:07:40.153Z,612.50
2023-06-06T07:08:40.132Z,640.20
2023-06-06T07:09:40.120Z,603.20
2023-06-06T07:10:40.134Z,613.90
2023-06-06T07:11:40.081Z,662.80
2023-06-06T07:12:40.740Z,633.30
2023-06-06T07:13:40.071Z,562.70
2023-06-06T07:14:40.056Z,555.10
2023-06-06T07:15:40.094Z,557.90
2023-06-06T07:16:40.039Z,574.80
2023-06-06T07:17:40.098Z,523.40
2023-06-06T07:18:40.029Z,622.20
2023-06-06T07:19:40.051Z,677.20
2023-06-06T07:20:40.040Z,652.10
2023-06-06T07:21:39.982Z,612.30
2023-06-06T07:22:39.969Z,674.00
2023-06-06T07:23:40.034Z,605.30
2023-06-06T07:24:40.004Z,582.80
2023-06-06T07:25:39.967Z,738.50
2023-06-06T07:26:39.932Z,770.90
2023-06-06T07:27:39.932Z,738.60
2023-06-06T07:28:42.960Z,691.70
2023-06-06T07:29:39.906Z,737.40
2023-06-06T07:30:39.870Z,621.00
2023-06-06T07:31:39.883Z,624.70
2023-06-06T07:32:39.939Z,625.20
2023-06-06T07:33:39.872Z,567.50
2023-06-06T07:34:39.881Z,512.30
2023-06-06T07:35:39.819Z,529.30
2023-06-06T07:36:39.811Z,519.50
2023-06-06T07:37:39.833Z,485.00
2023-06-06T07:38:39.832Z,465.90
2023-06-06T07:39:39.769Z,446.90
2023-06-06T07:40:39.744Z,511.50
2023-06-06T07:41:39.731Z,546.30
2023-06-06T07:42:39.750Z,533.10
2023-06-06T07:43:39.760Z,597.50
2023-06-06T07:44:39.727Z,574.00
2023-06-06T07:45:39.713Z,616.90
2023-06-06T07:46:39.773Z,615.30
2023-06-06T07:47:39.721Z,611.30
2023-06-06T07:48:39.717Z,601.70
2023-06-06T07:49:39.680Z,590.40
2023-06-06T07:50:39.674Z,613.10
2023-06-06T07:51:39.630Z,575.30
2023-06-06T07:52:39.691Z,626.60
2023-06-06T07:53:39.668Z,580.60
2023-06-06T07:54:39.591Z,615.20
2023-06-06T07:55:39.600Z,611.00
2023-06-06T07:56:39.583Z,609.80
2023-06-06T07:57:39.622Z,610.60
2023-06-06T07:58:39.574Z,661.70
2023-06-06T07:59:39.582Z,629.70
2023-06-06T08:00:39.540Z,639.10
2023-06-06T08:01:39.638Z,601.90
2023-06-06T08:02:39.679Z,653.90
2023-06-06T08:03:39.498Z,584.10
2023-06-06T08:04:39.501Z,582.80
2023-06-06T08:05:39.538Z,605.60
2023-06-06T08:06:39.534Z,549.30
2023-06-06T08:07:39.589Z,655.60
2023-06-06T08:08:39.444Z,593.60
2023-06-06T08:09:39.509Z,467.80
2023-06-06T08:10:39.445Z,473.10
2023-06-06T08:11:39.457Z,492.50
2023-06-06T08:12:39.435Z,525.20
2023-06-06T08:13:39.400Z,514.50
2023-06-06T08:14:39.392Z,506.30
2023-06-06T08:15:39.374Z,508.70
2023-06-06T08:16:39.392Z,448.00
2023-06-06T08:17:39.488Z,494.50
2023-06-06T08:18:39.456Z,404.80
2023-06-06T08:19:39.326Z,444.60
2023-06-06T08:20:39.371Z,485.90
2023-06-06T08:21:39.350Z,381.40
2023-06-06T08:22:39.353Z,382.00
2023-06-06T08:23:39.336Z,393.10
2023-06-06T08:24:39.288Z,414.20
2023-06-06T08:25:39.317Z,468.80
2023-06-06T08:26:39.274Z,523.70
2023-06-06T08:27:39.260Z,512.90
2023-06-06T08:28:39.227Z,444.70
2023-06-06T08:29:39.225Z,479.00
2023-06-06T08:30:39.256Z,544.50
2023-06-06T08:31:39.277Z,459.30
2023-06-06T08:32:39.236Z,490.40
2023-06-06T08:33:39.194Z,450.30
2023-06-06T08:34:39.179Z,419.10
2023-06-06T08:35:39.226Z,366.70
2023-06-06T08:36:39.150Z,327.20
2023-06-06T08:37:39.138Z,229.40
2023-06-06T08:38:39.121Z,187.40
2023-06-06T08:39:39.128Z,234.60
2023-06-06T08:40:39.100Z,264.80
2023-06-06T08:41:39.078Z,279.70
2023-06-06T08:42:39.068Z,209.10
2023-06-06T08:43:39.067Z,173.90
2023-06-06T08:44:39.068Z,176.00
2023-06-06T08:45:39.029Z,141.70
2023-06-06T08:46:39.065Z,135.10
2023-06-06T08:47:39.043Z,120.50
2023-06-06T08:48:39.047Z,122.90
2023-06-06T08:49:39.030Z,128.10
2023-06-06T08:50:38.964Z,128.90
2023-06-06T08:51:38.969Z,131.30
2023-06-06T08:52:38.962Z,179.80
2023-06-06T08:53:38.953Z,148.60
2023-06-06T08:54:38.933Z,152.10
2023-06-06T08:55:38.924Z,93.90
2023-06-06T08:56:38.894Z,65.30
2023-06-06T08:57:38.864Z,59.90
2023-06-06T08:58:38.913Z,61.20
2023-06-06T08:59:38.905Z,72.40
2023-06-06T09:00:38.874Z,62.40
2023-06-06T09:01:38.887Z,63.80
2023-06-06T09:02:38.906Z,75.00
2023-06-06T09:03:38.883Z,73.00
2023-06-06T09:04:38.826Z,50.30
2023-06-06T09:05:38.837Z,49.40
2023-06-06T09:06:38.795Z,63.10
2023-06-06T09:07:38.832Z,73.50
2023-06-06T09:08:38.805Z,45.60
2023-06-06T09:09:38.753Z,42.40
2023-06-06T09:10:38.766Z,37.30
2023-06-06T09:11:38.732Z,40.20
2023-06-06T09:12:38.766Z,40.10
2023-06-06T09:13:38.729Z,40.00
2023-06-06T09:14:38.724Z,36.80
2023-06-06T09:15:38.696Z,46.30
2023-06-06T09:16:38.795Z,36.70
2023-06-06T09:17:38.738Z,37.60
2023-06-06T09:18:38.679Z,32.10
2023-06-06T09:19:38.679Z,33.70
2023-06-06T09:20:38.661Z,36.00
2023-06-06T09:21:38.649Z,34.70
2023-06-06T09:22:38.660Z,41.10
2023-06-06T09:23:38.629Z,35.40
2023-06-06T09:24:38.736Z,29.20
2023-06-06T09:25:38.620Z,26.20
2023-06-06T09:26:38.612Z,27.30
2023-06-06T09:27:38.603Z,36.30
2023-06-06T09:28:38.584Z,47.40
2023-06-06T09:29:38.541Z,36.10
2023-06-06T09:30:38.584Z,34.80
2023-06-06T09:31:38.743Z,34.40
2023-06-06T09:32:40.227Z,35.90
2023-06-06T09:33:38.550Z,35.00
2023-06-06T09:34:38.494Z,34.90
2023-06-06T09:35:38.463Z,35.80
2023-06-06T09:36:38.523Z,35.20
2023-06-06T09:37:38.520Z,40.80
2023-06-06T09:38:38.459Z,44.10
2023-06-06T09:39:38.442Z,41.40
2023-06-06T09:40:38.464Z,45.00
2023-06-06T09:41:38.433Z,35.60
2023-06-06T09:42:38.408Z,35.10
2023-06-06T09:43:38.421Z,41.20
2023-06-06T09:44:38.472Z,39.10
2023-06-06T09:45:38.553Z,34.90
2023-06-06T09:46:38.546Z,40.70
2023-06-06T09:47:38.405Z,45.20
2023-06-06T09:48:38.339Z,34.60
2023-06-06T09:49:38.602Z,39.50
2023-06-06T09:50:38.365Z,40.80
2023-06-06T09:51:38.302Z,30.90
2023-06-06T09:52:38.914Z,28.20
2023-06-06T09:53:38.393Z,27.50
2023-06-06T09:54:38.238Z,31.90
2023-06-06T09:55:38.278Z,26.40
2023-06-06T09:56:38.254Z,27.70
2023-06-06T09:57:38.258Z,25.20
2023-06-06T09:58:38.233Z,23.70
2023-06-06T09:59:38.296Z,25.30
2023-06-06T10:00:38.231Z,24.60
2023-06-06T10:01:38.278Z,27.40
2023-06-06T10:02:38.351Z,25.80
2023-06-06T10:03:38.317Z,28.70
2023-06-06T10:04:38.397Z,27.80
2023-06-06T10:05:38.191Z,27.90
2023-06-06T10:06:38.132Z,30.10
2023-06-06T10:07:38.107Z,27.80
2023-06-06T10:08:38.135Z,31.90
2023-06-06T10:09:38.217Z,30.00
2023-06-06T10:10:38.106Z,31.40
2023-06-06T10:11:38.113Z,31.20
2023-06-06T10:12:38.073Z,33.20
2023-06-06T10:13:38.121Z,38.70
2023-06-06T10:14:38.088Z,34.60
2023-06-06T10:15:38.032Z,32.50
2023-06-06T10:16:38.089Z,30.70
2023-06-06T10:17:38.141Z,32.60
2023-06-06T10:18:38.067Z,31.80
2023-06-06T10:19:37.999Z,31.20
2023-06-06T10:20:37.989Z,30.10
2023-06-06T10:21:38.799Z,29.40
2023-06-06T10:22:38.005Z,31.50
2023-06-06T10:23:38.171Z,32.50
2023-06-06T10:24:39.822Z,31.10
2023-06-06T10:25:37.939Z,30.80
2023-06-06T10:26:37.904Z,31.30
2023-06-06T10:27:38.070Z,33.20
2023-06-06T10:28:38.066Z,29.90
2023-06-06T10:29:37.926Z,28.70
2023-06-06T10:30:37.870Z,30.30
2023-06-06T10:31:37.920Z,29.90
2023-06-06T10:32:37.939Z,37.40
2023-06-06T10:33:37.840Z,43.60
2023-06-06T10:34:37.864Z,46.40
2023-06-06T10:35:37.822Z,53.30
2023-06-06T10:36:37.787Z,49.80
2023-06-06T10:37:37.846Z,48.00
2023-06-06T10:38:37.781Z,47.90
2023-06-06T10:39:37.792Z,51.30
2023-06-06T10:40:37.764Z,54.00
2023-06-06T10:41:37.749Z,47.10
2023-06-06T10:42:37.766Z,43.90
2023-06-06T10:43:37.726Z,52.70
2023-06-06T10:44:37.739Z,41.60
2023-06-06T10:45:37.706Z,46.60
2023-06-06T10:46:37.791Z,38.00
2023-06-06T10:47:37.739Z,46.00
2023-06-06T10:48:37.691Z,49.50
2023-06-06T10:49:37.640Z,52.60
2023-06-06T10:50:37.635Z,68.60
2023-06-06T10:51:37.721Z,80.50
2023-06-06T10:52:37.623Z,145.60
2023-06-06T10:53:37.633Z,127.10
2023-06-06T10:54:37.602Z,333.10
2023-06-06T10:55:37.763Z,285.80
2023-06-06T10:56:37.645Z,358.10
2023-06-06T10:57:37.606Z,412.50
2023-06-06T10:58:37.768Z,569.20
2023-06-06T10:59:37.580Z,496.80
2023-06-06T11:00:37.628Z,381.70
2023-06-06T11:01:37.625Z,469.40
2023-06-06T11:02:37.531Z,426.70
2023-06-06T11:03:37.618Z,491.90
2023-06-06T11:04:37.486Z,493.30
2023-06-06T11:05:37.511Z,526.40
2023-06-06T11:06:37.463Z,565.50
2023-06-06T11:07:37.471Z,623.90
2023-06-06T11:08:37.469Z,701.90
2023-06-06T11:09:37.461Z,674.80
2023-06-06T11:10:37.425Z,597.40
2023-06-06T11:11:37.437Z,586.40
2023-06-06T11:12:37.383Z,584.10
2023-06-06T11:13:37.390Z,521.90
2023-06-06T11:14:37.351Z,334.60
2023-06-06T11:15:37.404Z,414.50
2023-06-06T11:16:37.379Z,533.00
2023-06-06T11:17:37.355Z,544.00
2023-06-06T11:18:37.293Z,524.90
2023-06-06T11:19:37.330Z,563.00
2023-06-06T11:20:37.354Z,691.50
2023-06-06T11:21:37.274Z,696.30
2023-06-06T11:22:37.290Z,630.70
2023-06-06T11:23:37.295Z,580.40
2023-06-06T11:24:37.297Z,641.00
2023-06-06T11:25:37.269Z,572.30
2023-06-06T11:26:37.242Z,527.70
2023-06-06T11:27:37.321Z,520.70
2023-06-06T11:28:37.197Z,518.80
2023-06-06T11:29:37.259Z,560.00
2023-06-06T11:30:37.416Z,618.40
2023-06-06T11:31:37.258Z,623.90
2023-06-06T11:32:37.254Z,357.00
2023-06-06T11:33:37.218Z,354.50
2023-06-06T11:34:37.201Z,536.00
2023-06-06T11:35:37.199Z,534.60
2023-06-06T11:36:37.138Z,554.00
2023-06-06T11:37:37.121Z,463.50
2023-06-06T11:38:37.123Z,574.20
2023-06-06T11:39:37.106Z,454.10
2023-06-06T11:40:37.101Z,556.30
2023-06-06T11:41:37.057Z,427.40
2023-06-06T11:42:37.100Z,454.50
2023-06-06T11:43:37.097Z,394.60
2023-06-06T11:44:37.246Z,395.60
2023-06-06T11:45:37.976Z,408.10
2023-06-06T11:46:36.994Z,471.50
2023-06-06T11:47:37.119Z,368.00
2023-06-06T11:48:37.056Z,355.50
2023-06-06T11:49:36.954Z,233.30
2023-06-06T11:50:36.960Z,510.40
2023-06-06T11:51:36.949Z,360.90
2023-06-06T11:52:36.943Z,388.50
2023-06-06T11:53:36.924Z,457.10
2023-06-06T11:54:36.898Z,460.50
2023-06-06T11:55:36.905Z,437.90
2023-06-06T11:56:36.878Z,427.60
2023-06-06T11:57:36.913Z,305.70
2023-06-06T11:58:36.859Z,371.80
2023-06-06T11:59:36.911Z,415.20
2023-06-06T12:00:36.832Z,313.00
2023-06-06T12:01:36.872Z,346.40
2023-06-06T12:02:36.902Z,306.40
2023-06-06T12:03:36.945Z,346.90
2023-06-06T12:04:36.819Z,504.10
2023-06-06T12:05:36.805Z,433.30
2023-06-06T12:06:36.821Z,360.80
2023-06-06T12:07:36.753Z,377.20
2023-06-06T12:08:36.751Z,404.80
2023-06-06T12:09:36.746Z,347.40
2023-06-06T12:10:36.743Z,268.60
2023-06-06T12:11:36.798Z,336.80
2023-06-06T12:12:36.699Z,308.50
2023-06-06T12:13:36.709Z,266.80
2023-06-06T12:14:36.660Z,289.60
2023-06-06T12:15:36.700Z,359.80
2023-06-06T12:16:36.714Z,388.80
2023-06-06T12:17:36.764Z,371.60
2023-06-06T12:18:36.821Z,312.30
2023-06-06T12:19:36.605Z,405.20
2023-06-06T12:20:36.640Z,354.40
2023-06-06T12:21:36.611Z,329.00
2023-06-06T12:22:36.586Z,468.90
2023-06-06T12:23:36.677Z,287.40
2023-06-06T12:24:36.572Z,320.80
2023-06-06T12:25:36.592Z,375.80
2023-06-06T12:26:36.543Z,376.00
2023-06-06T12:27:36.541Z,304.10
2023-06-06T12:28:36.522Z,312.60
2023-06-06T12:29:36.522Z,323.80
2023-06-06T12:30:36.567Z,369.80
2023-06-06T12:31:36.514Z,293.20
2023-06-06T12:32:36.566Z,405.20
2023-06-06T12:33:36.462Z,277.00